sensor_id;sensor_type;location;lat;lon;timestamp;temperature;humidity
52321;DHT22;38261;54.090;13.382;2022-12-24T00:00:44;0.70;99.90
52321;DHT22;38261;54.090;13.382;2022-12-24T00:02:06;0.70;99.90
52321;DHT22;38261;54.090;13.382;2022-12-24T00:03:28;0.70;99.90
52321;DHT22;38261;54.090;13.382;2022-12-24T00:04:50;0.60;99.90
52321;DHT22;38261;54.090;13.382;2022-12-24T00:06:22;0.60;99.90
52321;DHT22;38261;54.090;13.382;2022-12-24T00:07:44;0.70;99.90
52321;DHT22;38261;54.090;13.382;2022-12-24T00:09:08;0.70;99.90
52321;DHT22;38261;54.090;13.382;2022-12-24T00:10:30;0.60;99.90
52321;DHT22;38261;54.090;13.382;2022-12-24T00:11:52;0.60;99.90
52321;DHT22;38261;54.090;13.382;2022-12-24T00:13:14;0.60;99.90
52321;DHT22;38261;54.090;13.382;2022-12-24T00:14:36;0.70;99.90
52321;DHT22;38261;54.090;13.382;2022-12-24T00:15:59;0.70;99.90
52321;DHT22;38261;54.090;13.382;2022-12-24T00:17:21;0.60;99.90
52321;DHT22;38261;54.090;13.382;2022-12-24T00:18:43;0.70;99.90
52321;DHT22;38261;54.090;13.382;2022-12-24T00:20:08;0.60;99.90
52321;DHT22;38261;54.090;13.382;2022-12-24T00:21:30;0.70;99.90
52321;DHT22;38261;54.090;13.382;2022-12-24T00:22:52;0.70;99.90
52321;DHT22;38261;54.090;13.382;2022-12-24T00:24:14;0.80;99.90
52321;DHT22;38261;54.090;13.382;2022-12-24T00:25:36;0.70;99.90
52321;DHT22;38261;54.090;13.382;2022-12-24T00:26:58;0.70;99.90
52321;DHT22;38261;54.090;13.382;2022-12-24T00:28:21;0.70;99.90
52321;DHT22;38261;54.090;13.382;2022-12-24T00:29:43;0.70;99.90
52321;DHT22;38261;54.090;13.382;2022-12-24T00:31:14;0.70;99.90
52321;DHT22;38261;54.090;13.382;2022-12-24T00:32:36;0.70;99.90
52321;DHT22;38261;54.090;13.382;2022-12-24T00:33:59;0.70;99.90
52321;DHT22;38261;54.090;13.382;2022-12-24T00:35:22;0.70;99.90
52321;DHT22;38261;54.090;13.382;2022-12-24T00:36:44;0.70;99.90
52321;DHT22;38261;54.090;13.382;2022-12-24T00:38:07;0.70;99.90
52321;DHT22;38261;54.090;13.382;2022-12-24T00:39:29;0.70;99.90
52321;DHT22;38261;54.090;13.382;2022-12-24T00:40:59;0.70;99.90
52321;DHT22;38261;54.090;13.382;2022-12-24T00:42:22;0.80;99.90
52321;DHT22;38261;54.090;13.382;2022-12-24T00:43:44;0.90;99.90
52321;DHT22;38261;54.090;13.382;2022-12-24T00:45:07;0.90;99.90
52321;DHT22;38261;54.090;13.382;2022-12-24T00:46:31;0.90;99.90
52321;DHT22;38261;54.090;13.382;2022-12-24T00:47:53;0.90;99.90
52321;DHT22;38261;54.090;13.382;2022-12-24T00:49:16;0.90;99.90
52321;DHT22;38261;54.090;13.382;2022-12-24T00:50:38;0.90;99.90
52321;DHT22;38261;54.090;13.382;2022-12-24T00:52:00;0.80;99.90
52321;DHT22;38261;54.090;13.382;2022-12-24T00:53:23;0.90;99.90
52321;DHT22;38261;54.090;13.382;2022-12-24T00:54:46;0.80;99.90
52321;DHT22;38261;54.090;13.382;2022-12-24T00:56:08;0.90;99.90
52321;DHT22;38261;54.090;13.382;2022-12-24T00:57:30;0.90;99.90
52321;DHT22;38261;54.090;13.382;2022-12-24T00:58:53;0.90;99.90
52321;DHT22;38261;54.090;13.382;2022-12-24T01:00:15;0.90;99.90
52321;DHT22;38261;54.090;13.382;2022-12-24T01:01:38;0.90;99.90
52321;DHT22;38261;54.090;13.382;2022-12-24T01:03:00;0.90;99.90
52321;DHT22;38261;54.090;13.382;2022-12-24T01:04:23;0.90;99.90
52321;DHT22;38261;54.090;13.382;2022-12-24T01:06:09;0.90;99.90
52321;DHT22;38261;54.090;13.382;2022-12-24T01:07:31;0.80;99.90
52321;DHT22;38261;54.090;13.382;2022-12-24T01:08:53;0.80;99.90
52321;DHT22;38261;54.090;13.382;2022-12-24T01:10:18;0.80;99.90
52321;DHT22;38261;54.090;13.382;2022-12-24T01:11:40;0.80;99.90
52321;DHT22;38261;54.090;13.382;2022-12-24T01:13:03;0.80;99.90
52321;DHT22;38261;54.090;13.382;2022-12-24T01:14:25;0.80;99.90
52321;DHT22;38261;54.090;13.382;2022-12-24T01:15:47;0.70;99.90
52321;DHT22;38261;54.090;13.382;2022-12-24T01:17:09;0.70;99.90
52321;DHT22;38261;54.090;13.382;2022-12-24T01:18:31;0.70;99.90
52321;DHT22;38261;54.090;13.382;2022-12-24T01:19:53;0.60;99.90
52321;DHT22;38261;54.090;13.382;2022-12-24T01:21:16;0.60;99.90
52321;DHT22;38261;54.090;13.382;2022-12-24T01:22:38;0.60;99.90
52321;DHT22;38261;54.090;13.382;2022-12-24T01:24:00;0.50;99.90
52321;DHT22;38261;54.090;13.382;2022-12-24T01:25:22;0.50;99.90
52321;DHT22;38261;54.090;13.382;2022-12-24T01:26:44;0.50;99.90
52321;DHT22;38261;54.090;13.382;2022-12-24T01:28:06;0.50;99.90
52321;DHT22;38261;54.090;13.382;2022-12-24T01:29:28;0.50;99.90
52321;DHT22;38261;54.090;13.382;2022-12-24T01:30:50;0.50;99.90
52321;DHT22;38261;54.090;13.382;2022-12-24T01:32:13;0.50;99.90
52321;DHT22;38261;54.090;13.382;2022-12-24T01:33:35;0.50;99.90
52321;DHT22;38261;54.090;13.382;2022-12-24T01:34:57;0.50;99.90
52321;DHT22;38261;54.090;13.382;2022-12-24T01:36:20;0.40;99.90
52321;DHT22;38261;54.090;13.382;2022-12-24T01:37:42;0.40;99.90
52321;DHT22;38261;54.090;13.382;2022-12-24T01:39:04;0.40;99.90
52321;DHT22;38261;54.090;13.382;2022-12-24T01:40:26;0.50;99.90
52321;DHT22;38261;54.090;13.382;2022-12-24T01:42:21;0.50;99.90
52321;DHT22;38261;54.090;13.382;2022-12-24T01:47:20;0.50;99.90
52321;DHT22;38261;54.090;13.382;2022-12-24T01:48:46;0.50;99.90
52321;DHT22;38261;54.090;13.382;2022-12-24T01:50:14;0.50;99.90
52321;DHT22;38261;54.090;13.382;2022-12-24T01:51:43;0.50;99.90
52321;DHT22;38261;54.090;13.382;2022-12-24T01:53:07;0.50;99.90
52321;DHT22;38261;54.090;13.382;2022-12-24T01:54:34;0.50;99.90
52321;DHT22;38261;54.090;13.382;2022-12-24T01:55:58;0.50;99.90
52321;DHT22;38261;54.090;13.382;2022-12-24T01:57:24;0.50;99.90
52321;DHT22;38261;54.090;13.382;2022-12-24T01:58:53;0.50;99.90
52321;DHT22;38261;54.090;13.382;2022-12-24T02:00:16;0.50;99.90
52321;DHT22;38261;54.090;13.382;2022-12-24T02:01:38;0.50;99.90
52321;DHT22;38261;54.090;13.382;2022-12-24T02:03:01;0.60;99.90
52321;DHT22;38261;54.090;13.382;2022-12-24T02:04:56;0.50;99.90
52321;DHT22;38261;54.090;13.382;2022-12-24T02:06:20;0.50;99.90
52321;DHT22;38261;54.090;13.382;2022-12-24T02:07:43;0.60;99.90
52321;DHT22;38261;54.090;13.382;2022-12-24T02:09:06;0.60;99.90
52321;DHT22;38261;54.090;13.382;2022-12-24T02:10:28;0.60;99.90
52321;DHT22;38261;54.090;13.382;2022-12-24T02:11:51;0.60;99.90
52321;DHT22;38261;54.090;13.382;2022-12-24T02:13:15;0.60;99.90
52321;DHT22;38261;54.090;13.382;2022-12-24T02:14:38;0.60;99.90
52321;DHT22;38261;54.090;13.382;2022-12-24T02:31:43;0.50;99.90
52321;DHT22;38261;54.090;13.382;2022-12-24T02:34:49;0.50;99.90
52321;DHT22;38261;54.090;13.382;2022-12-24T02:37:43;0.50;99.90
52321;DHT22;38261;54.090;13.382;2022-12-24T02:39:11;0.50;99.90
52321;DHT22;38261;54.090;13.382;2022-12-24T02:40:40;0.50;99.90
52321;DHT22;38261;54.090;13.382;2022-12-24T02:42:05;0.50;99.90
52321;DHT22;38261;54.090;13.382;2022-12-24T02:43:33;0.50;99.90
52321;DHT22;38261;54.090;13.382;2022-12-24T02:45:06;0.50;99.90
52321;DHT22;38261;54.090;13.382;2022-12-24T02:46:30;0.50;99.90
52321;DHT22;38261;54.090;13.382;2022-12-24T02:47:54;0.60;99.90
52321;DHT22;38261;54.090;13.382;2022-12-24T02:49:16;0.60;99.90
52321;DHT22;38261;54.090;13.382;2022-12-24T02:50:38;0.60;99.90
52321;DHT22;38261;54.090;13.382;2022-12-24T02:52:00;0.60;99.90
52321;DHT22;38261;54.090;13.382;2022-12-24T02:53:23;0.60;99.90
52321;DHT22;38261;54.090;13.382;2022-12-24T02:54:45;0.60;99.90
52321;DHT22;38261;54.090;13.382;2022-12-24T02:56:18;0.60;99.90
52321;DHT22;38261;54.090;13.382;2022-12-24T03:07:37;0.60;99.90
52321;DHT22;38261;54.090;13.382;2022-12-24T03:11:00;0.60;99.90
52321;DHT22;38261;54.090;13.382;2022-12-24T03:12:49;0.60;99.90
52321;DHT22;38261;54.090;13.382;2022-12-24T03:14:13;0.60;99.90
52321;DHT22;38261;54.090;13.382;2022-12-24T03:15:37;0.70;99.90
52321;DHT22;38261;54.090;13.382;2022-12-24T03:17:01;0.70;99.90
52321;DHT22;38261;54.090;13.382;2022-12-24T03:18:25;0.70;99.90
52321;DHT22;38261;54.090;13.382;2022-12-24T03:19:47;0.70;99.90
52321;DHT22;38261;54.090;13.382;2022-12-24T03:21:14;0.80;99.90
52321;DHT22;38261;54.090;13.382;2022-12-24T03:22:38;0.80;99.90
52321;DHT22;38261;54.090;13.382;2022-12-24T03:24:00;0.80;99.90
52321;DHT22;38261;54.090;13.382;2022-12-24T03:25:24;0.80;99.90
52321;DHT22;38261;54.090;13.382;2022-12-24T03:26:48;0.80;99.90
52321;DHT22;38261;54.090;13.382;2022-12-24T03:28:15;0.90;99.90
52321;DHT22;38261;54.090;13.382;2022-12-24T03:29:39;0.90;99.90
52321;DHT22;38261;54.090;13.382;2022-12-24T03:31:05;0.90;99.90
52321;DHT22;38261;54.090;13.382;2022-12-24T03:32:30;0.90;99.90
52321;DHT22;38261;54.090;13.382;2022-12-24T03:33:53;0.90;99.90
52321;DHT22;38261;54.090;13.382;2022-12-24T03:35:15;0.90;99.90
52321;DHT22;38261;54.090;13.382;2022-12-24T03:36:37;1.00;99.90
52321;DHT22;38261;54.090;13.382;2022-12-24T03:37:59;1.00;99.90
52321;DHT22;38261;54.090;13.382;2022-12-24T03:39:22;1.00;99.90
52321;DHT22;38261;54.090;13.382;2022-12-24T03:40:44;1.00;99.90
52321;DHT22;38261;54.090;13.382;2022-12-24T03:42:06;1.00;99.90
52321;DHT22;38261;54.090;13.382;2022-12-24T03:43:28;1.00;99.90
52321;DHT22;38261;54.090;13.382;2022-12-24T03:44:50;1.00;99.90
52321;DHT22;38261;54.090;13.382;2022-12-24T03:46:13;1.00;99.90
52321;DHT22;38261;54.090;13.382;2022-12-24T03:47:35;1.00;99.90
52321;DHT22;38261;54.090;13.382;2022-12-24T03:48:57;1.00;99.90
52321;DHT22;38261;54.090;13.382;2022-12-24T03:50:19;1.00;99.90
52321;DHT22;38261;54.090;13.382;2022-12-24T03:51:41;1.00;99.90
52321;DHT22;38261;54.090;13.382;2022-12-24T03:53:03;1.00;99.90
52321;DHT22;38261;54.090;13.382;2022-12-24T03:54:25;1.00;99.90
52321;DHT22;38261;54.090;13.382;2022-12-24T03:55:47;1.00;99.90
52321;DHT22;38261;54.090;13.382;2022-12-24T03:57:09;1.00;99.90
52321;DHT22;38261;54.090;13.382;2022-12-24T03:58:31;1.00;99.90
52321;DHT22;38261;54.090;13.382;2022-12-24T03:59:54;1.00;99.90
52321;DHT22;38261;54.090;13.382;2022-12-24T04:01:16;1.00;99.90
52321;DHT22;38261;54.090;13.382;2022-12-24T04:02:39;1.00;99.90
52321;DHT22;38261;54.090;13.382;2022-12-24T04:04:01;1.00;99.90
52321;DHT22;38261;54.090;13.382;2022-12-24T04:05:23;1.00;99.90
52321;DHT22;38261;54.090;13.382;2022-12-24T04:06:45;1.00;99.90
52321;DHT22;38261;54.090;13.382;2022-12-24T04:08:08;1.00;99.90
52321;DHT22;38261;54.090;13.382;2022-12-24T04:09:30;1.00;99.90
52321;DHT22;38261;54.090;13.382;2022-12-24T04:10:52;1.00;99.90
52321;DHT22;38261;54.090;13.382;2022-12-24T04:12:14;1.00;99.90
52321;DHT22;38261;54.090;13.382;2022-12-24T04:13:37;1.00;99.90
52321;DHT22;38261;54.090;13.382;2022-12-24T04:14:59;1.00;99.90
52321;DHT22;38261;54.090;13.382;2022-12-24T04:16:21;1.00;99.90
52321;DHT22;38261;54.090;13.382;2022-12-24T04:17:43;1.00;99.90
52321;DHT22;38261;54.090;13.382;2022-12-24T04:19:05;1.00;99.90
52321;DHT22;38261;54.090;13.382;2022-12-24T04:20:27;1.00;99.90
52321;DHT22;38261;54.090;13.382;2022-12-24T04:21:49;1.00;99.90
52321;DHT22;38261;54.090;13.382;2022-12-24T04:23:11;1.00;99.90
52321;DHT22;38261;54.090;13.382;2022-12-24T04:24:33;1.00;99.90
52321;DHT22;38261;54.090;13.382;2022-12-24T04:25:57;1.00;99.90
52321;DHT22;38261;54.090;13.382;2022-12-24T04:27:19;1.00;99.90
52321;DHT22;38261;54.090;13.382;2022-12-24T04:28:49;1.00;99.90
52321;DHT22;38261;54.090;13.382;2022-12-24T04:30:11;1.00;99.90
52321;DHT22;38261;54.090;13.382;2022-12-24T04:31:33;1.00;99.90
52321;DHT22;38261;54.090;13.382;2022-12-24T04:32:55;1.00;99.90
52321;DHT22;38261;54.090;13.382;2022-12-24T04:34:17;1.00;99.90
52321;DHT22;38261;54.090;13.382;2022-12-24T04:35:40;1.00;99.90
52321;DHT22;38261;54.090;13.382;2022-12-24T04:37:03;1.00;99.90
52321;DHT22;38261;54.090;13.382;2022-12-24T04:38:25;1.00;99.90
52321;DHT22;38261;54.090;13.382;2022-12-24T04:39:47;1.00;99.90
52321;DHT22;38261;54.090;13.382;2022-12-24T04:41:15;1.00;99.90
52321;DHT22;38261;54.090;13.382;2022-12-24T04:42:44;1.00;99.90
52321;DHT22;38261;54.090;13.382;2022-12-24T04:44:07;1.00;99.90
52321;DHT22;38261;54.090;13.382;2022-12-24T04:45:30;1.00;99.90
52321;DHT22;38261;54.090;13.382;2022-12-24T04:46:53;1.00;99.90
52321;DHT22;38261;54.090;13.382;2022-12-24T04:48:15;1.00;99.90
52321;DHT22;38261;54.090;13.382;2022-12-24T04:49:37;1.00;99.90
52321;DHT22;38261;54.090;13.382;2022-12-24T04:51:03;1.00;99.90
52321;DHT22;38261;54.090;13.382;2022-12-24T04:52:26;1.00;99.90
52321;DHT22;38261;54.090;13.382;2022-12-24T04:53:49;1.00;99.90
52321;DHT22;38261;54.090;13.382;2022-12-24T04:55:11;1.00;99.90
52321;DHT22;38261;54.090;13.382;2022-12-24T04:56:33;1.00;99.90
52321;DHT22;38261;54.090;13.382;2022-12-24T04:57:55;1.00;99.90
52321;DHT22;38261;54.090;13.382;2022-12-24T04:59:17;1.00;99.90
52321;DHT22;38261;54.090;13.382;2022-12-24T05:00:40;1.00;99.90
52321;DHT22;38261;54.090;13.382;2022-12-24T05:02:02;1.00;99.90
52321;DHT22;38261;54.090;13.382;2022-12-24T05:03:24;0.90;99.90
52321;DHT22;38261;54.090;13.382;2022-12-24T05:04:47;0.90;99.90
52321;DHT22;38261;54.090;13.382;2022-12-24T05:06:12;0.90;99.90
52321;DHT22;38261;54.090;13.382;2022-12-24T05:07:35;0.90;99.90
52321;DHT22;38261;54.090;13.382;2022-12-24T05:08:58;0.90;99.90
52321;DHT22;38261;54.090;13.382;2022-12-24T05:10:20;0.90;99.90
52321;DHT22;38261;54.090;13.382;2022-12-24T05:11:43;0.90;99.90
52321;DHT22;38261;54.090;13.382;2022-12-24T05:13:05;0.90;99.90
52321;DHT22;38261;54.090;13.382;2022-12-24T05:14:27;0.80;99.90
52321;DHT22;38261;54.090;13.382;2022-12-24T05:15:49;0.80;99.90
52321;DHT22;38261;54.090;13.382;2022-12-24T05:17:11;0.80;99.90
52321;DHT22;38261;54.090;13.382;2022-12-24T05:18:33;0.80;99.90
52321;DHT22;38261;54.090;13.382;2022-12-24T05:19:55;0.80;99.90
52321;DHT22;38261;54.090;13.382;2022-12-24T05:21:20;0.80;99.90
52321;DHT22;38261;54.090;13.382;2022-12-24T05:22:43;0.80;99.90
52321;DHT22;38261;54.090;13.382;2022-12-24T05:24:23;0.80;99.90
52321;DHT22;38261;54.090;13.382;2022-12-24T05:26:15;0.80;99.90
52321;DHT22;38261;54.090;13.382;2022-12-24T05:27:43;0.80;99.90
52321;DHT22;38261;54.090;13.382;2022-12-24T05:29:12;0.80;99.90
52321;DHT22;38261;54.090;13.382;2022-12-24T05:30:34;0.80;99.90
52321;DHT22;38261;54.090;13.382;2022-12-24T05:31:56;0.80;99.90
52321;DHT22;38261;54.090;13.382;2022-12-24T05:33:18;0.80;99.90
52321;DHT22;38261;54.090;13.382;2022-12-24T05:34:40;0.80;99.90
52321;DHT22;38261;54.090;13.382;2022-12-24T05:36:02;0.80;99.90
52321;DHT22;38261;54.090;13.382;2022-12-24T05:37:24;0.80;99.90
52321;DHT22;38261;54.090;13.382;2022-12-24T05:38:46;0.80;99.90
52321;DHT22;38261;54.090;13.382;2022-12-24T05:40:09;0.90;99.90
52321;DHT22;38261;54.090;13.382;2022-12-24T05:41:31;0.90;99.90
52321;DHT22;38261;54.090;13.382;2022-12-24T05:42:53;0.90;99.90
52321;DHT22;38261;54.090;13.382;2022-12-24T05:44:16;0.90;99.90
52321;DHT22;38261;54.090;13.382;2022-12-24T05:45:38;0.90;99.90
52321;DHT22;38261;54.090;13.382;2022-12-24T05:47:00;0.90;99.90
52321;DHT22;38261;54.090;13.382;2022-12-24T05:48:22;0.90;99.90
52321;DHT22;38261;54.090;13.382;2022-12-24T05:49:44;0.90;99.90
52321;DHT22;38261;54.090;13.382;2022-12-24T05:51:07;0.90;99.90
52321;DHT22;38261;54.090;13.382;2022-12-24T05:52:30;0.90;99.90
52321;DHT22;38261;54.090;13.382;2022-12-24T05:53:52;0.90;99.90
52321;DHT22;38261;54.090;13.382;2022-12-24T05:55:14;1.00;99.90
52321;DHT22;38261;54.090;13.382;2022-12-24T05:56:36;0.90;99.90
52321;DHT22;38261;54.090;13.382;2022-12-24T05:57:58;0.90;99.90
52321;DHT22;38261;54.090;13.382;2022-12-24T05:59:20;0.90;99.90
52321;DHT22;38261;54.090;13.382;2022-12-24T06:00:42;0.90;99.90
52321;DHT22;38261;54.090;13.382;2022-12-24T06:02:04;0.90;99.90
52321;DHT22;38261;54.090;13.382;2022-12-24T06:03:27;0.90;99.90
52321;DHT22;38261;54.090;13.382;2022-12-24T06:04:50;0.90;99.90
52321;DHT22;38261;54.090;13.382;2022-12-24T06:06:14;1.00;99.90
52321;DHT22;38261;54.090;13.382;2022-12-24T06:07:38;1.00;99.90
52321;DHT22;38261;54.090;13.382;2022-12-24T06:09:00;1.00;99.90
52321;DHT22;38261;54.090;13.382;2022-12-24T06:10:22;1.00;99.90
52321;DHT22;38261;54.090;13.382;2022-12-24T06:11:45;1.00;99.90
52321;DHT22;38261;54.090;13.382;2022-12-24T06:13:07;1.10;99.90
52321;DHT22;38261;54.090;13.382;2022-12-24T06:14:29;1.10;99.90
52321;DHT22;38261;54.090;13.382;2022-12-24T06:15:58;1.10;99.90
52321;DHT22;38261;54.090;13.382;2022-12-24T06:17:20;1.10;99.90
52321;DHT22;38261;54.090;13.382;2022-12-24T06:18:43;1.10;99.90
52321;DHT22;38261;54.090;13.382;2022-12-24T06:20:05;1.10;99.90
52321;DHT22;38261;54.090;13.382;2022-12-24T06:21:28;1.10;99.90
52321;DHT22;38261;54.090;13.382;2022-12-24T06:22:50;1.20;99.90
52321;DHT22;38261;54.090;13.382;2022-12-24T06:24:12;1.20;99.90
52321;DHT22;38261;54.090;13.382;2022-12-24T06:25:34;1.20;99.90
52321;DHT22;38261;54.090;13.382;2022-12-24T06:26:56;1.20;99.90
52321;DHT22;38261;54.090;13.382;2022-12-24T06:28:18;1.20;99.90
52321;DHT22;38261;54.090;13.382;2022-12-24T06:29:41;1.20;99.90
52321;DHT22;38261;54.090;13.382;2022-12-24T06:31:04;1.20;99.90
52321;DHT22;38261;54.090;13.382;2022-12-24T06:32:26;1.30;99.90
52321;DHT22;38261;54.090;13.382;2022-12-24T06:33:49;1.30;99.90
52321;DHT22;38261;54.090;13.382;2022-12-24T06:35:12;1.30;99.90
52321;DHT22;38261;54.090;13.382;2022-12-24T06:36:34;1.30;99.90
52321;DHT22;38261;54.090;13.382;2022-12-24T06:37:56;1.30;99.90
52321;DHT22;38261;54.090;13.382;2022-12-24T06:39:18;1.30;99.90
52321;DHT22;38261;54.090;13.382;2022-12-24T06:40:42;1.30;99.90
52321;DHT22;38261;54.090;13.382;2022-12-24T06:42:05;1.40;99.90
52321;DHT22;38261;54.090;13.382;2022-12-24T06:43:27;1.40;99.90
52321;DHT22;38261;54.090;13.382;2022-12-24T06:44:49;1.40;99.90
52321;DHT22;38261;54.090;13.382;2022-12-24T06:46:11;1.40;99.90
52321;DHT22;38261;54.090;13.382;2022-12-24T06:47:34;1.40;99.90
52321;DHT22;38261;54.090;13.382;2022-12-24T06:48:56;1.40;99.90
52321;DHT22;38261;54.090;13.382;2022-12-24T06:50:18;1.40;99.90
52321;DHT22;38261;54.090;13.382;2022-12-24T06:51:40;1.50;99.90
52321;DHT22;38261;54.090;13.382;2022-12-24T06:53:02;1.50;99.90
52321;DHT22;38261;54.090;13.382;2022-12-24T06:54:24;1.50;99.90
52321;DHT22;38261;54.090;13.382;2022-12-24T06:55:46;1.50;99.90
52321;DHT22;38261;54.090;13.382;2022-12-24T06:57:09;1.50;99.90
52321;DHT22;38261;54.090;13.382;2022-12-24T06:58:33;1.50;99.90
52321;DHT22;38261;54.090;13.382;2022-12-24T06:59:55;1.50;99.90
52321;DHT22;38261;54.090;13.382;2022-12-24T07:01:18;1.60;99.90
52321;DHT22;38261;54.090;13.382;2022-12-24T07:02:42;1.60;99.90
52321;DHT22;38261;54.090;13.382;2022-12-24T07:04:05;1.60;99.90
52321;DHT22;38261;54.090;13.382;2022-12-24T07:05:27;1.60;99.90
52321;DHT22;38261;54.090;13.382;2022-12-24T07:06:49;1.60;99.90
52321;DHT22;38261;54.090;13.382;2022-12-24T07:08:11;1.60;99.90
52321;DHT22;38261;54.090;13.382;2022-12-24T07:09:33;1.60;99.90
52321;DHT22;38261;54.090;13.382;2022-12-24T07:10:58;1.60;99.90
52321;DHT22;38261;54.090;13.382;2022-12-24T07:12:20;1.60;99.90
52321;DHT22;38261;54.090;13.382;2022-12-24T07:13:42;1.60;99.90
52321;DHT22;38261;54.090;13.382;2022-12-24T07:15:04;1.60;99.90
52321;DHT22;38261;54.090;13.382;2022-12-24T07:16:27;1.60;99.90
52321;DHT22;38261;54.090;13.382;2022-12-24T07:17:49;1.60;99.90
52321;DHT22;38261;54.090;13.382;2022-12-24T07:19:11;1.60;99.90
52321;DHT22;38261;54.090;13.382;2022-12-24T07:20:33;1.60;99.90
52321;DHT22;38261;54.090;13.382;2022-12-24T07:21:55;1.60;99.90
52321;DHT22;38261;54.090;13.382;2022-12-24T07:23:18;1.70;99.90
52321;DHT22;38261;54.090;13.382;2022-12-24T07:24:40;1.70;99.90
52321;DHT22;38261;54.090;13.382;2022-12-24T07:26:03;1.70;99.90
52321;DHT22;38261;54.090;13.382;2022-12-24T07:27:26;1.70;99.90
52321;DHT22;38261;54.090;13.382;2022-12-24T07:28:48;1.70;99.90
52321;DHT22;38261;54.090;13.382;2022-12-24T07:30:10;1.70;99.90
52321;DHT22;38261;54.090;13.382;2022-12-24T07:31:33;1.70;99.90
52321;DHT22;38261;54.090;13.382;2022-12-24T07:32:55;1.80;99.90
52321;DHT22;38261;54.090;13.382;2022-12-24T07:34:17;1.80;99.90
52321;DHT22;38261;54.090;13.382;2022-12-24T07:35:39;1.80;99.90
52321;DHT22;38261;54.090;13.382;2022-12-24T07:37:01;1.80;99.90
52321;DHT22;38261;54.090;13.382;2022-12-24T07:38:23;1.80;99.90
52321;DHT22;38261;54.090;13.382;2022-12-24T07:39:45;1.80;99.90
52321;DHT22;38261;54.090;13.382;2022-12-24T07:41:07;1.80;99.90
52321;DHT22;38261;54.090;13.382;2022-12-24T07:42:30;1.80;99.90
52321;DHT22;38261;54.090;13.382;2022-12-24T07:43:53;1.80;99.90
52321;DHT22;38261;54.090;13.382;2022-12-24T07:45:15;1.80;99.90
52321;DHT22;38261;54.090;13.382;2022-12-24T07:46:37;1.80;99.90
52321;DHT22;38261;54.090;13.382;2022-12-24T07:48:00;1.80;99.90
52321;DHT22;38261;54.090;13.382;2022-12-24T07:49:22;1.90;99.90
52321;DHT22;38261;54.090;13.382;2022-12-24T07:50:44;1.90;99.90
52321;DHT22;38261;54.090;13.382;2022-12-24T07:52:06;1.90;99.90
52321;DHT22;38261;54.090;13.382;2022-12-24T07:53:29;1.90;99.90
52321;DHT22;38261;54.090;13.382;2022-12-24T07:54:51;2.00;99.90
52321;DHT22;38261;54.090;13.382;2022-12-24T07:56:14;2.00;99.90
52321;DHT22;38261;54.090;13.382;2022-12-24T07:57:36;2.00;99.90
52321;DHT22;38261;54.090;13.382;2022-12-24T07:58:58;2.00;99.90
52321;DHT22;38261;54.090;13.382;2022-12-24T08:00:20;2.00;99.90
52321;DHT22;38261;54.090;13.382;2022-12-24T08:01:42;2.10;99.90
52321;DHT22;38261;54.090;13.382;2022-12-24T08:03:05;2.10;99.90
52321;DHT22;38261;54.090;13.382;2022-12-24T08:04:30;2.20;99.90
52321;DHT22;38261;54.090;13.382;2022-12-24T08:05:53;2.20;99.90
52321;DHT22;38261;54.090;13.382;2022-12-24T08:07:15;2.30;99.90
52321;DHT22;38261;54.090;13.382;2022-12-24T08:08:37;2.30;99.90
52321;DHT22;38261;54.090;13.382;2022-12-24T08:09:59;2.30;99.90
52321;DHT22;38261;54.090;13.382;2022-12-24T08:11:21;2.30;99.90
52321;DHT22;38261;54.090;13.382;2022-12-24T08:12:43;2.30;99.90
52321;DHT22;38261;54.090;13.382;2022-12-24T08:14:06;2.30;99.90
52321;DHT22;38261;54.090;13.382;2022-12-24T08:15:28;2.30;99.90
52321;DHT22;38261;54.090;13.382;2022-12-24T08:16:50;2.40;99.90
52321;DHT22;38261;54.090;13.382;2022-12-24T08:18:12;2.40;99.90
52321;DHT22;38261;54.090;13.382;2022-12-24T08:19:34;2.40;99.90
52321;DHT22;38261;54.090;13.382;2022-12-24T08:20:57;2.40;99.90
52321;DHT22;38261;54.090;13.382;2022-12-24T08:22:19;2.40;99.90
52321;DHT22;38261;54.090;13.382;2022-12-24T08:23:41;2.50;99.90
52321;DHT22;38261;54.090;13.382;2022-12-24T08:25:03;2.50;99.90
52321;DHT22;38261;54.090;13.382;2022-12-24T08:26:25;2.50;99.90
52321;DHT22;38261;54.090;13.382;2022-12-24T08:27:47;2.50;99.90
52321;DHT22;38261;54.090;13.382;2022-12-24T08:29:09;2.50;99.90
52321;DHT22;38261;54.090;13.382;2022-12-24T08:30:33;2.50;99.90
52321;DHT22;38261;54.090;13.382;2022-12-24T08:31:55;2.60;99.90
52321;DHT22;38261;54.090;13.382;2022-12-24T08:33:18;2.60;99.90
52321;DHT22;38261;54.090;13.382;2022-12-24T08:34:40;2.60;99.90
52321;DHT22;38261;54.090;13.382;2022-12-24T08:36:02;2.70;99.90
52321;DHT22;38261;54.090;13.382;2022-12-24T08:37:25;2.70;99.90
52321;DHT22;38261;54.090;13.382;2022-12-24T08:38:47;2.80;99.90
52321;DHT22;38261;54.090;13.382;2022-12-24T08:40:09;2.80;99.90
52321;DHT22;38261;54.090;13.382;2022-12-24T08:41:32;2.90;99.90
52321;DHT22;38261;54.090;13.382;2022-12-24T08:42:54;2.90;99.90
52321;DHT22;38261;54.090;13.382;2022-12-24T08:44:16;3.00;99.90
52321;DHT22;38261;54.090;13.382;2022-12-24T08:45:38;3.00;99.90
52321;DHT22;38261;54.090;13.382;2022-12-24T08:47:02;3.00;99.90
52321;DHT22;38261;54.090;13.382;2022-12-24T08:48:24;3.10;99.90
52321;DHT22;38261;54.090;13.382;2022-12-24T08:49:46;3.10;99.90
52321;DHT22;38261;54.090;13.382;2022-12-24T08:51:09;3.10;99.90
52321;DHT22;38261;54.090;13.382;2022-12-24T08:52:32;3.10;99.90
52321;DHT22;38261;54.090;13.382;2022-12-24T08:53:54;3.20;99.90
52321;DHT22;38261;54.090;13.382;2022-12-24T08:55:16;3.20;99.90
52321;DHT22;38261;54.090;13.382;2022-12-24T08:56:38;3.20;99.90
52321;DHT22;38261;54.090;13.382;2022-12-24T08:58:01;3.20;99.90
52321;DHT22;38261;54.090;13.382;2022-12-24T08:59:23;3.20;99.90
52321;DHT22;38261;54.090;13.382;2022-12-24T09:00:45;3.20;99.90
52321;DHT22;38261;54.090;13.382;2022-12-24T09:02:08;3.20;99.90
52321;DHT22;38261;54.090;13.382;2022-12-24T09:03:30;3.20;99.90
52321;DHT22;38261;54.090;13.382;2022-12-24T09:04:53;3.20;99.90
52321;DHT22;38261;54.090;13.382;2022-12-24T09:06:15;3.20;99.90
52321;DHT22;38261;54.090;13.382;2022-12-24T09:07:37;3.30;99.90
52321;DHT22;38261;54.090;13.382;2022-12-24T09:08:59;3.30;99.90
52321;DHT22;38261;54.090;13.382;2022-12-24T09:10:21;3.30;99.90
52321;DHT22;38261;54.090;13.382;2022-12-24T09:11:44;3.40;99.90
52321;DHT22;38261;54.090;13.382;2022-12-24T09:13:06;3.40;99.90
52321;DHT22;38261;54.090;13.382;2022-12-24T09:14:28;3.40;99.90
52321;DHT22;38261;54.090;13.382;2022-12-24T09:15:54;3.40;99.90
52321;DHT22;38261;54.090;13.382;2022-12-24T09:17:16;3.50;99.90
52321;DHT22;38261;54.090;13.382;2022-12-24T09:18:39;3.50;99.90
52321;DHT22;38261;54.090;13.382;2022-12-24T09:20:03;3.50;99.90